createdAt,value
2019-02-09T00:00:33.022Z,59.70
2019-02-09T00:02:59.747Z,64.77
2019-02-09T00:05:26.388Z,56.80
2019-02-09T00:07:53.227Z,60.27
2019-02-09T00:10:19.976Z,56.80
2019-02-09T00:12:46.718Z,53.30
2019-02-09T00:15:13.563Z,58.13
2019-02-09T00:17:40.447Z,56.63
2019-02-09T00:20:07.748Z,65.73
2019-02-09T00:22:34.484Z,60.60
2019-02-09T00:25:01.229Z,55.17
2019-02-09T00:27:28.073Z,61.20
2019-02-09T00:29:55.008Z,59.73
2019-02-09T00:32:21.755Z,56.07
2019-02-09T00:34:48.484Z,61.40
2019-02-09T00:37:15.239Z,64.37
2019-02-09T00:39:41.966Z,60.87
2019-02-09T00:42:08.818Z,61.87
2019-02-09T00:44:35.664Z,66.37
2019-02-09T00:47:02.549Z,59.87
2019-02-09T00:49:29.432Z,61.40
2019-02-09T00:51:56.175Z,67.37
2019-02-09T00:54:22.915Z,59.87
2019-02-09T00:56:49.754Z,63.90
2019-02-09T00:59:16.491Z,64.80
2019-02-09T01:01:43.246Z,64.23
2019-02-09T01:04:10.085Z,69.33
2019-02-09T01:06:36.811Z,73.13
2019-02-09T01:09:03.661Z,56.97
2019-02-09T01:11:30.406Z,60.00
2019-02-09T01:13:57.136Z,62.27
2019-02-09T01:16:23.883Z,59.50
2019-02-09T01:18:50.982Z,69.30
2019-02-09T01:21:17.983Z,68.27
2019-02-09T01:23:44.719Z,70.37
2019-02-09T01:26:11.558Z,67.30
2019-02-09T01:28:38.400Z,71.77
2019-02-09T01:31:05.127Z,71.20
2019-02-09T01:33:31.871Z,71.63
2019-02-09T01:35:58.502Z,68.93
2019-02-09T01:38:25.253Z,65.37
2019-02-09T01:40:52.093Z,62.03
2019-02-09T01:43:18.824Z,66.57
2019-02-09T01:45:45.570Z,61.67
2019-02-09T01:48:12.314Z,62.63
2019-02-09T01:50:39.156Z,64.73
2019-02-09T01:53:06.002Z,59.37
2019-02-09T01:55:32.721Z,63.50
2019-02-09T01:57:59.476Z,68.13
2019-02-09T02:00:26.318Z,60.20
2019-02-09T02:02:53.050Z,65.70
2019-02-09T02:05:19.988Z,65.40
2019-02-09T02:07:46.738Z,69.00
2019-02-09T02:10:13.579Z,65.23
2019-02-09T02:12:40.306Z,59.70
2019-02-09T02:15:07.061Z,61.57
2019-02-09T02:17:33.786Z,59.40
2019-02-09T02:20:00.541Z,61.90
2019-02-09T02:22:27.372Z,59.53
2019-02-09T02:24:54.005Z,64.30
2019-02-09T02:27:20.749Z,69.63
2019-02-09T02:29:47.597Z,62.73
2019-02-09T02:32:14.441Z,67.63
2019-02-09T02:34:41.285Z,61.43
2019-02-09T02:37:08.168Z,58.93
2019-02-09T02:39:35.286Z,65.50
2019-02-09T02:42:02.111Z,57.60
2019-02-09T02:44:28.961Z,58.50
2019-02-09T02:46:55.795Z,61.10
2019-02-09T02:49:22.537Z,56.10
2019-02-09T02:51:49.263Z,61.70
2019-02-09T02:54:16.003Z,54.30
2019-02-09T02:56:42.755Z,67.43
2019-02-09T02:59:09.533Z,70.17
2019-02-09T03:01:36.334Z,62.03
2019-02-09T03:04:03.182Z,63.10
2019-02-09T03:06:29.918Z,56.73
2019-02-09T03:08:56.645Z,57.10
2019-02-09T03:11:23.394Z,66.73
2019-02-09T03:13:50.342Z,62.47
2019-02-09T03:16:17.178Z,61.83
2019-02-09T03:18:43.907Z,56.80
2019-02-09T03:21:10.657Z,59.97
2019-02-09T03:23:37.808Z,65.40
2019-02-09T03:26:04.541Z,52.43
2019-02-09T03:28:31.291Z,57.97
2019-02-09T03:30:58.123Z,64.50
2019-02-09T03:33:24.861Z,64.27
2019-02-09T03:35:51.710Z,61.70
2019-02-09T03:38:18.449Z,61.53
2019-02-09T03:40:45.182Z,61.37
2019-02-09T03:43:12.122Z,58.60
2019-02-09T03:45:38.860Z,61.03
2019-02-09T03:48:05.600Z,62.50
2019-02-09T03:50:32.310Z,56.60
2019-02-09T03:52:59.092Z,59.47
2019-02-09T03:55:25.825Z,63.97
2019-02-09T03:57:52.522Z,62.60
2019-02-09T04:00:19.308Z,59.90
2019-02-09T04:02:46.036Z,63.57
2019-02-09T04:05:12.775Z,67.13
2019-02-09T04:07:39.548Z,61.97
2019-02-09T04:10:06.257Z,57.40
2019-02-09T04:12:33.097Z,59.70
2019-02-09T04:14:59.730Z,63.47
2019-02-09T04:17:26.469Z,64.13
2019-02-09T04:19:53.112Z,59.20
2019-02-09T04:22:19.849Z,58.80
2019-02-09T04:24:46.688Z,59.30
2019-02-09T04:27:13.323Z,59.13
2019-02-09T04:29:40.064Z,63.13
2019-02-09T04:32:06.802Z,57.03
2019-02-09T04:34:33.540Z,53.63
2019-02-09T04:37:00.287Z,63.17
2019-02-09T04:39:27.021Z,58.07
2019-02-09T04:41:53.878Z,44.47
2019-02-09T04:44:20.712Z,55.37
2019-02-09T04:46:47.454Z,54.53
2019-02-09T04:49:14.295Z,58.93
2019-02-09T04:51:41.044Z,55.87
2019-02-09T04:54:07.776Z,57.10
2019-02-09T04:56:34.617Z,47.43
2019-02-09T04:59:01.467Z,49.43
2019-02-09T05:01:28.291Z,56.03
2019-02-09T05:03:55.031Z,47.43
2019-02-09T05:06:21.775Z,53.07
2019-02-09T05:08:48.618Z,52.90
2019-02-09T05:11:15.347Z,59.20
2019-02-09T05:13:42.512Z,51.47
2019-02-09T05:16:09.248Z,56.17
2019-02-09T05:18:35.988Z,54.00
2019-02-09T05:21:02.829Z,58.73
2019-02-09T05:23:29.555Z,54.50
2019-02-09T05:25:56.718Z,55.97
2019-02-09T05:28:23.450Z,64.80
2019-02-09T05:30:50.193Z,63.33
2019-02-09T05:33:17.242Z,61.83
2019-02-09T05:35:43.977Z,59.07
2019-02-09T05:38:10.817Z,55.70
2019-02-09T05:40:37.669Z,58.73
2019-02-09T05:43:04.507Z,62.50
2019-02-09T05:45:31.348Z,59.93
2019-02-09T05:47:58.084Z,60.07
2019-02-09T05:50:24.928Z,59.83
2019-02-09T05:52:51.660Z,57.90
2019-02-09T05:55:18.409Z,50.33
2019-02-09T05:57:45.251Z,57.13
2019-02-09T06:00:12.183Z,53.20
2019-02-09T06:02:38.922Z,58.83
2019-02-09T06:05:05.675Z,51.20
2019-02-09T06:07:32.411Z,63.23
2019-02-09T06:09:59.252Z,52.57
2019-02-09T06:12:25.993Z,53.03
2019-02-09T06:14:52.826Z,57.03
2019-02-09T06:17:19.563Z,59.57
2019-02-09T06:19:46.330Z,54.87
2019-02-09T06:22:13.154Z,53.60
2019-02-09T06:24:39.884Z,60.37
2019-02-09T06:27:06.738Z,57.53
2019-02-09T06:29:33.571Z,63.37
2019-02-09T06:32:00.311Z,53.27
2019-02-09T06:34:27.158Z,52.47
2019-02-09T06:36:53.897Z,54.80
2019-02-09T06:39:20.728Z,52.47
2019-02-09T06:41:47.506Z,59.03
2019-02-09T06:44:14.209Z,60.67
2019-02-09T06:46:40.989Z,67.57
2019-02-09T06:49:07.687Z,61.40
2019-02-09T06:51:34.539Z,62.60
2019-02-09T06:54:01.265Z,59.73
2019-02-09T06:56:28.022Z,68.70
2019-02-09T06:58:54.859Z,67.03
2019-02-09T07:01:21.591Z,63.33
2019-02-09T07:03:48.450Z,67.00
2019-02-09T07:06:15.167Z,70.17
2019-02-09T07:08:41.923Z,66.57
2019-02-09T07:11:08.676Z,66.10
2019-02-09T07:13:35.418Z,56.47
2019-02-09T07:16:02.257Z,63.43
2019-02-09T07:18:29.101Z,61.13
2019-02-09T07:20:55.831Z,57.10
2019-02-09T07:23:22.569Z,58.97
2019-02-09T07:25:49.304Z,63.90
2019-02-09T07:28:16.056Z,62.17
2019-02-09T07:30:42.899Z,64.67
2019-02-09T07:33:09.740Z,59.10
2019-02-09T07:35:36.469Z,55.00
2019-02-09T07:38:03.207Z,50.30
2019-02-09T07:40:29.924Z,54.77
2019-02-09T07:42:56.694Z,55.17
2019-02-09T07:45:23.537Z,48.47
2019-02-09T07:47:50.264Z,51.60
2019-02-09T07:50:17.014Z,46.87
2019-02-09T07:52:43.807Z,52.57
2019-02-09T07:55:10.587Z,48.07
2019-02-09T07:57:37.539Z,51.87
2019-02-09T08:00:04.382Z,52.80
2019-02-09T08:02:31.114Z,51.13
2019-02-09T08:04:57.965Z,46.33
2019-02-09T08:07:24.690Z,48.23
2019-02-09T08:09:51.649Z,48.63
2019-02-09T08:12:18.384Z,48.63
2019-02-09T08:14:45.125Z,46.87
2019-02-09T08:17:11.954Z,54.07
2019-02-09T08:19:38.708Z,48.53
2019-02-09T08:22:05.469Z,50.10
2019-02-09T08:24:32.276Z,47.83
2019-02-09T08:26:58.952Z,44.43
2019-02-09T08:29:25.779Z,45.50
2019-02-09T08:31:52.609Z,45.20
2019-02-09T08:34:19.345Z,52.57
2019-02-09T08:36:46.096Z,47.93
2019-02-09T08:39:12.818Z,51.30
2019-02-09T08:41:40.081Z,42.37
2019-02-09T08:44:06.809Z,52.50
2019-02-09T08:46:33.545Z,41.90
2019-02-09T08:49:00.306Z,51.80
2019-02-09T08:51:27.025Z,54.80
2019-02-09T08:53:53.882Z,58.17
2019-02-09T08:56:20.705Z,57.80
2019-02-09T08:58:47.454Z,54.03
2019-02-09T09:01:14.153Z,56.07
2019-02-09T09:03:40.942Z,55.97
2019-02-09T09:06:07.791Z,56.77
2019-02-09T09:08:34.633Z,55.30
2019-02-09T09:11:01.501Z,54.37
2019-02-09T09:13:28.390Z,53.33
2019-02-09T09:15:55.132Z,50.57
2019-02-09T09:18:21.881Z,50.73
2019-02-09T09:20:48.622Z,50.13
2019-02-09T09:23:15.354Z,46.00
2019-02-09T09:25:42.090Z,46.53
2019-02-09T09:28:08.828Z,45.07
2019-02-09T09:30:35.608Z,45.40
2019-02-09T09:33:02.720Z,46.33
2019-02-09T09:35:29.456Z,45.77
2019-02-09T09:37:56.308Z,46.03
2019-02-09T09:40:23.261Z,46.30
2019-02-09T09:42:50.095Z,46.30
2019-02-09T09:45:17.247Z,46.13
2019-02-09T09:47:43.971Z,48.60
2019-02-09T09:50:10.718Z,36.97
2019-02-09T09:52:37.450Z,46.03
2019-02-09T09:55:04.296Z,46.27
2019-02-09T09:57:31.031Z,43.53
2019-02-09T09:59:57.883Z,44.03
2019-02-09T10:02:25.224Z,46.87
2019-02-09T10:04:51.966Z,52.00
2019-02-09T10:07:19.275Z,46.80
2019-02-09T10:09:46.017Z,45.47
2019-02-09T10:12:12.808Z,45.60
2019-02-09T10:14:39.534Z,43.60
2019-02-09T10:17:06.284Z,48.33
2019-02-09T10:19:33.062Z,43.87
2019-02-09T10:21:59.859Z,45.87
2019-02-09T10:24:26.612Z,44.43
2019-02-09T10:26:53.346Z,45.67
2019-02-09T10:29:20.076Z,50.30
2019-02-09T10:31:46.931Z,44.23
2019-02-09T10:34:13.660Z,49.27
2019-02-09T10:36:40.413Z,47.40
2019-02-09T10:39:07.246Z,48.50
2019-02-09T10:41:33.993Z,48.70
2019-02-09T10:44:00.831Z,47.33
2019-02-09T10:46:27.679Z,48.13
2019-02-09T10:48:54.613Z,53.37
2019-02-09T10:51:21.351Z,47.63
2019-02-09T10:53:48.091Z,52.77
2019-02-09T10:56:14.933Z,53.63
2019-02-09T10:58:41.777Z,40.73
2019-02-09T11:01:08.514Z,43.10
2019-02-09T11:03:35.255Z,38.07
2019-02-09T11:06:02.098Z,38.50
2019-02-09T11:08:28.938Z,36.43
2019-02-09T11:10:55.779Z,36.17
2019-02-09T11:13:22.521Z,39.00
2019-02-09T11:15:49.361Z,35.60
2019-02-09T11:18:16.089Z,32.27
2019-02-09T11:20:42.836Z,34.83
2019-02-09T11:23:09.568Z,35.93
2019-02-09T11:25:36.308Z,34.43
2019-02-09T11:28:03.064Z,32.87
2019-02-09T11:30:29.784Z,38.87
2019-02-09T11:33:02.164Z,36.67
2019-02-09T11:35:25.007Z,38.27
2019-02-09T11:37:51.745Z,34.60
2019-02-09T11:40:18.492Z,35.60
2019-02-09T11:42:45.334Z,36.27
2019-02-09T11:45:12.168Z,34.93
2019-02-09T11:47:38.906Z,34.83
2019-02-09T11:50:06.453Z,32.57
2019-02-09T11:52:33.421Z,29.57
2019-02-09T11:55:00.310Z,26.73
2019-02-09T11:57:27.668Z,27.57
2019-02-09T11:59:54.449Z,26.50
2019-02-09T12:02:21.302Z,29.80
2019-02-09T12:04:48.026Z,31.00
2019-02-09T12:07:14.664Z,37.37
2019-02-09T12:09:41.511Z,35.77
2019-02-09T12:12:08.257Z,35.00
2019-02-09T12:14:34.947Z,33.23
2019-02-09T12:17:01.666Z,32.73
2019-02-09T12:19:28.793Z,35.33
2019-02-09T12:21:55.621Z,35.77
2019-02-09T12:24:22.359Z,31.80
2019-02-09T12:26:49.127Z,34.43
2019-02-09T12:29:15.828Z,35.17
2019-02-09T12:31:42.679Z,32.90
2019-02-09T12:34:09.532Z,35.30
2019-02-09T12:36:36.364Z,33.60
2019-02-09T12:39:03.093Z,34.13
2019-02-09T12:41:29.965Z,33.87
2019-02-09T12:43:56.991Z,29.13
2019-02-09T12:46:23.844Z,28.50
2019-02-09T12:48:50.671Z,25.17
2019-02-09T12:51:17.404Z,26.93
2019-02-09T12:53:44.160Z,25.47
2019-02-09T12:56:10.888Z,26.67
2019-02-09T12:58:37.747Z,22.30
2019-02-09T13:01:04.678Z,22.17
2019-02-09T13:03:31.665Z,17.03
2019-02-09T13:05:58.562Z,16.27
2019-02-09T13:08:25.298Z,14.13
2019-02-09T13:10:52.154Z,10.93
2019-02-09T13:13:18.837Z,9.70
2019-02-09T13:15:45.626Z,9.10
2019-02-09T13:18:12.466Z,7.70
2019-02-09T14:09:36.450Z,24.00
2019-02-09T14:12:03.184Z,13.83
2019-02-09T14:14:30.030Z,8.83
2019-02-09T14:16:56.874Z,12.57
2019-02-09T14:19:23.597Z,7.30
2019-02-09T14:21:50.451Z,7.73
2019-02-09T14:24:17.192Z,7.40
2019-02-09T14:26:44.034Z,9.37
2019-02-09T14:29:10.760Z,9.03
2019-02-09T14:31:37.610Z,7.43
2019-02-09T14:34:04.449Z,9.63
2019-02-09T14:36:31.159Z,8.83
2019-02-09T14:38:57.991Z,9.33
2019-02-09T14:41:25.311Z,9.23
2019-02-09T14:43:52.014Z,8.50
2019-02-09T14:46:18.762Z,8.03
2019-02-09T14:48:45.508Z,7.27
2019-02-09T14:51:12.847Z,7.77
2019-02-09T14:53:39.592Z,11.10
2019-02-09T14:56:06.440Z,7.63
2019-02-09T14:58:33.172Z,9.67
2019-02-09T15:00:59.912Z,12.27
2019-02-09T15:03:30.457Z,11.53
2019-02-09T15:05:55.125Z,9.13
2019-02-09T15:08:21.771Z,15.30
2019-02-09T15:10:48.502Z,8.57
2019-02-09T15:13:15.142Z,7.63
2019-02-09T15:15:41.995Z,9.10
2019-02-09T15:18:08.842Z,9.87
2019-02-09T15:20:35.559Z,10.27
2019-02-09T15:23:02.307Z,10.33
2019-02-09T15:25:29.062Z,10.73
2019-02-09T15:27:55.907Z,12.67
2019-02-09T15:30:22.738Z,11.20
2019-02-09T15:32:49.580Z,10.40
2019-02-09T15:35:16.302Z,11.10
2019-02-09T15:37:43.046Z,11.83
2019-02-09T15:55:22.900Z,11.83
2019-02-09T15:57:49.742Z,10.90
2019-02-09T16:00:16.577Z,12.33
2019-02-09T16:02:43.421Z,14.27
2019-02-09T16:05:10.144Z,12.17
2019-02-09T16:07:37.007Z,13.23
2019-02-09T16:10:03.730Z,10.30
2019-02-09T16:12:30.570Z,9.87
2019-02-09T16:14:57.319Z,10.17
2019-02-09T16:17:24.061Z,11.03
2019-02-09T16:19:50.904Z,11.03
2019-02-09T16:22:17.628Z,13.77
2019-02-09T16:24:44.453Z,12.80
2019-02-09T16:27:11.223Z,12.30
2019-02-09T16:29:38.063Z,15.20
2019-02-09T16:32:04.806Z,13.80
2019-02-09T16:34:31.529Z,16.70
2019-02-09T16:36:58.370Z,11.50
2019-02-09T16:39:25.121Z,14.50
2019-02-09T16:41:51.960Z,13.77
2019-02-09T16:44:18.698Z,13.97
2019-02-09T16:46:45.432Z,13.30
2019-02-09T16:49:12.581Z,10.77
2019-02-09T16:51:39.332Z,14.67
2019-02-09T16:54:06.067Z,13.40
2019-02-09T16:56:32.924Z,15.23
2019-02-09T16:58:59.643Z,13.97
2019-02-09T17:01:26.494Z,14.20
2019-02-09T17:03:53.332Z,10.50
2019-02-09T17:06:20.094Z,12.83
2019-02-09T17:08:46.919Z,14.40
2019-02-09T17:11:13.652Z,15.37
2019-02-09T17:13:40.491Z,17.00
2019-02-09T17:16:09.837Z,15.33
2019-02-09T17:18:36.840Z,14.03
2019-02-09T17:21:03.691Z,13.10
2019-02-09T17:23:30.525Z,16.83
2019-02-09T17:25:57.291Z,12.70
2019-02-09T17:28:24.097Z,15.53
2019-02-09T17:30:52.506Z,15.47
2019-02-09T17:33:19.723Z,16.13
2019-02-09T17:35:48.084Z,14.00
2019-02-09T17:38:17.364Z,12.67
2019-02-09T17:40:46.260Z,18.53
2019-02-09T17:43:14.575Z,17.57
2019-02-09T17:45:43.395Z,15.53
2019-02-09T17:48:12.555Z,22.73
2019-02-09T17:50:42.422Z,14.83
2019-02-09T17:53:11.368Z,13.97
2019-02-09T17:55:38.311Z,15.30
2019-02-09T17:58:07.059Z,15.60
2019-02-09T18:00:34.006Z,15.27
2019-02-09T18:03:01.193Z,18.33
2019-02-09T18:05:28.353Z,15.23
2019-02-09T18:07:55.629Z,13.03
2019-02-09T18:10:22.682Z,11.97
2019-02-09T18:12:50.920Z,13.50
2019-02-09T18:15:19.733Z,15.33
2019-02-09T18:17:48.172Z,16.63
2019-02-09T18:20:15.424Z,17.27
2019-02-09T18:22:42.615Z,15.23
2019-02-09T18:25:09.615Z,16.50
2019-02-09T18:27:39.083Z,17.47
2019-02-09T18:30:05.897Z,17.17
2019-02-09T18:32:35.803Z,13.07
2019-02-09T18:35:02.573Z,14.33
2019-02-09T18:37:29.361Z,15.37
2019-02-09T18:39:56.193Z,17.70
2019-02-09T18:42:24.681Z,20.27
2019-02-09T18:44:52.085Z,15.20
2019-02-09T18:47:18.879Z,15.13
2019-02-09T18:49:45.720Z,17.27
2019-02-09T18:52:12.661Z,17.13
2019-02-09T18:54:39.605Z,14.87
2019-02-09T18:57:06.676Z,16.50
2019-02-09T18:59:33.492Z,21.67
2019-02-09T19:02:00.532Z,21.63
2019-02-09T19:04:27.656Z,19.70
2019-02-09T19:06:54.327Z,19.87
2019-02-09T19:09:22.344Z,22.67
2019-02-09T19:11:49.437Z,19.00
2019-02-09T19:14:16.286Z,19.50
2019-02-09T19:16:43.128Z,16.27
2019-02-09T19:19:09.840Z,22.57
2019-02-09T19:21:36.625Z,21.47
2019-02-09T19:24:03.335Z,21.83
2019-02-09T19:26:30.062Z,23.93
2019-02-09T19:28:56.916Z,21.57
2019-02-09T19:31:23.659Z,16.40
2019-02-09T19:33:50.398Z,19.60
2019-02-09T19:36:17.246Z,24.23
2019-02-09T19:38:43.986Z,24.03
2019-02-09T19:41:10.723Z,24.77
2019-02-09T19:43:37.457Z,26.27
2019-02-09T19:46:04.201Z,26.43
2019-02-09T19:48:30.993Z,24.37
2019-02-09T19:50:57.791Z,27.80
2019-02-09T19:53:24.522Z,26.17
2019-02-09T19:55:51.754Z,26.53
2019-02-09T19:58:18.623Z,29.50
2019-02-09T20:00:45.457Z,26.00
2019-02-09T20:03:12.288Z,26.07
2019-02-09T20:05:39.028Z,26.27
2019-02-09T20:08:05.783Z,24.60
2019-02-09T20:10:33.740Z,27.53
2019-02-09T20:13:00.606Z,24.23
2019-02-09T20:15:27.622Z,21.67
2019-02-09T20:17:54.633Z,24.33
2019-02-09T20:20:21.429Z,23.57
2019-02-09T20:22:48.385Z,24.87
2019-02-09T20:25:15.200Z,24.43
2019-02-09T20:27:42.205Z,24.33
2019-02-09T20:30:09.018Z,27.63
2019-02-09T20:32:35.833Z,24.43
2019-02-09T20:35:03.074Z,25.00
2019-02-09T20:37:31.103Z,22.43
2019-02-09T20:39:58.124Z,29.23
2019-02-09T20:42:25.444Z,23.67
2019-02-09T20:44:52.490Z,26.03
2019-02-09T20:47:19.338Z,33.07
2019-02-09T20:49:46.179Z,23.43
2019-02-09T20:52:13.233Z,25.00
2019-02-09T20:54:40.063Z,26.47
2019-02-09T20:57:07.125Z,25.67
2019-02-09T20:59:34.001Z,27.43
2019-02-09T21:02:00.797Z,25.80
2019-02-09T21:04:28.263Z,23.53
2019-02-09T21:06:55.305Z,23.80
2019-02-09T21:09:22.655Z,22.90
2019-02-09T21:11:49.393Z,23.50
2019-02-09T21:14:16.839Z,25.27
2019-02-09T21:16:51.354Z,23.03
2019-02-09T21:19:11.956Z,24.13
2019-02-09T21:21:38.660Z,21.00
2019-02-09T21:24:05.544Z,24.57
2019-02-09T21:26:32.274Z,21.57
2019-02-09T21:28:59.180Z,21.53
2019-02-09T21:31:26.164Z,20.70
2019-02-09T21:33:52.902Z,20.30
2019-02-09T21:36:19.905Z,19.40
2019-02-09T21:38:46.819Z,23.47
2019-02-09T21:41:13.532Z,20.63
2019-02-09T21:43:40.280Z,23.30
2019-02-09T21:46:07.177Z,22.97
2019-02-09T21:48:34.063Z,21.03
2019-02-09T21:51:01.206Z,20.90
2019-02-09T21:53:27.943Z,18.80
2019-02-09T21:55:54.692Z,17.67
2019-02-09T21:58:21.535Z,15.53
2019-02-09T22:00:48.302Z,18.30
2019-02-09T22:03:15.309Z,15.57
2019-02-09T22:05:42.047Z,15.43
2019-02-09T22:08:08.800Z,16.60
2019-02-09T22:10:35.554Z,16.47
2019-02-09T22:13:02.885Z,14.53
2019-02-09T22:15:38.062Z,19.73
2019-02-09T22:17:58.305Z,16.87
2019-02-09T22:20:25.055Z,15.60
2019-02-09T22:22:51.782Z,17.07
2019-02-09T22:25:18.520Z,18.77
2019-02-09T22:27:45.771Z,17.27
2019-02-09T22:30:12.600Z,19.60
2019-02-09T22:32:39.400Z,19.70
2019-02-09T22:35:06.123Z,17.87
2019-02-09T22:37:32.865Z,18.10
2019-02-09T22:39:59.793Z,20.23
2019-02-09T22:42:26.518Z,18.07
2019-02-09T22:44:53.253Z,20.07
2019-02-09T22:47:20.887Z,20.90
2019-02-09T22:49:47.985Z,18.70
2019-02-09T22:52:15.427Z,16.73
2019-02-09T22:54:42.380Z,17.53
2019-02-09T22:57:10.057Z,17.70
2019-02-09T22:59:36.886Z,19.03
2019-02-09T23:02:04.442Z,16.73
2019-02-09T23:04:31.272Z,22.47
2019-02-09T23:06:58.002Z,16.43
2019-02-09T23:09:24.757Z,17.33
2019-02-09T23:11:51.410Z,17.53
2019-02-09T23:14:18.119Z,18.93
2019-02-09T23:16:44.857Z,17.10
2019-02-09T23:19:11.494Z,19.23
2019-02-09T23:21:38.249Z,18.17
2019-02-09T23:24:04.997Z,17.43
2019-02-09T23:26:31.725Z,18.70
2019-02-09T23:28:58.450Z,17.23
2019-02-09T23:31:25.249Z,25.07
2019-02-09T23:33:52.469Z,17.23
2019-02-09T23:36:19.309Z,17.20
2019-02-09T23:38:46.174Z,17.47
2019-02-09T23:41:12.882Z,21.93
2019-02-09T23:43:39.718Z,18.70
2019-02-09T23:46:06.654Z,17.33
2019-02-09T23:48:33.406Z,19.60
2019-02-09T23:51:00.137Z,19.50
2019-02-09T23:53:26.825Z,17.07
2019-02-09T23:55:53.514Z,16.10
2019-02-09T23:58:20.462Z,18.60
